Time;durP1;ratioP1;P1;durP2;ratioP2;P2;SDS_P1;SDS_P2;PMS_P1;PMS_P2;Temp;Humidity;BMP_temperature;BMP_pressure;BME280_temperature;BME280_humidity;BME280_pressure;Samples;Min_cycle;Max_cycle;Signal;HPM_P1;HPM_P2
2024/03/30 00:00:16;;;;;;;1.73;1.63;;;13.30;99.90;;;;;;2095973;28;20029;-71
2024/03/30 00:01:17;;;;;;;3.28;1.73;;;13.30;99.90;;;;;;2095620;28;20024;-72
2024/03/30 00:02:17;;;;;;;1.95;1.67;;;13.30;99.90;;;;;;2096738;28;20104;-72
2024/03/30 00:03:19;;;;;;;1.38;1.27;;;13.30;99.90;;;;;;2084687;28;20404;-71
2024/03/30 00:04:19;;;;;;;1.13;1.02;;;13.30;99.90;;;;;;2086137;28;20036;-71
2024/03/30 00:05:20;;;;;;;1.48;1.15;;;13.20;99.90;;;;;;2095265;28;20036;-71
2024/03/30 00:06:20;;;;;;;0.93;0.90;;;13.20;99.90;;;;;;2094595;28;20024;-71
2024/03/30 00:07:21;;;;;;;1.10;1.00;;;13.20;99.90;;;;;;2094577;28;20025;-71
2024/03/30 00:08:21;;;;;;;1.17;0.70;;;13.20;99.90;;;;;;2093422;28;20029;-71
2024/03/30 00:09:22;;;;;;;1.80;0.70;;;13.20;99.90;;;;;;2093027;28;20025;-71
2024/03/30 00:10:22;;;;;;;1.10;0.85;;;13.20;99.90;;;;;;2096556;28;20086;-71
2024/03/30 00:11:23;;;;;;;1.10;0.73;;;13.20;99.90;;;;;;2094836;28;20024;-71
2024/03/30 00:12:23;;;;;;;0.82;0.73;;;13.20;99.90;;;;;;2095717;28;20680;-71
2024/03/30 00:13:24;;;;;;;0.77;0.75;;;13.20;99.90;;;;;;2094588;28;20049;-71
2024/03/30 00:14:25;;;;;;;1.25;0.90;;;13.20;99.90;;;;;;2091269;28;20079;-71
2024/03/30 00:15:28;;;;;;;1.13;0.70;;;13.20;99.90;;;;;;2096995;28;20035;-71
2024/03/30 00:16:29;;;;;;;0.90;0.60;;;13.20;99.90;;;;;;2093625;28;20107;-71
2024/03/30 00:17:30;;;;;;;1.00;0.70;;;13.10;99.90;;;;;;2094097;28;20029;-71
2024/03/30 00:18:31;;;;;;;0.90;0.90;;;13.10;99.90;;;;;;2095928;28;20036;-71
2024/03/30 00:19:31;;;;;;;0.88;0.80;;;13.10;99.90;;;;;;2093771;28;20029;-71
2024/03/30 00:20:32;;;;;;;1.45;1.10;;;13.10;99.90;;;;;;2093147;28;20025;-71
2024/03/30 00:21:32;;;;;;;1.58;1.38;;;13.10;99.90;;;;;;2094831;28;20094;-71
2024/03/30 00:22:33;;;;;;;0.98;0.85;;;13.10;99.90;;;;;;2094759;28;20032;-71
2024/03/30 00:23:35;;;;;;;2.22;0.75;;;13.10;99.90;;;;;;2094505;28;20068;-71
2024/03/30 00:24:36;;;;;;;1.45;1.08;;;13.10;99.90;;;;;;2096880;28;20024;-71
2024/03/30 00:25:36;;;;;;;1.15;0.80;;;13.10;99.90;;;;;;2091497;28;20207;-71
2024/03/30 00:26:37;;;;;;;1.13;1.02;;;13.10;99.90;;;;;;2093061;28;20032;-71
2024/03/30 00:27:37;;;;;;;1.17;1.00;;;13.10;99.90;;;;;;2092957;28;20028;-71
2024/03/30 00:28:38;;;;;;;1.25;1.08;;;13.10;99.90;;;;;;2096176;28;20138;-71
2024/03/30 00:29:44;;;;;;;0.77;0.77;;;13.10;99.90;;;;;;2093936;28;20484;-71
2024/03/30 00:30:45;;;;;;;1.25;0.70;;;13.10;99.90;;;;;;2092566;28;20075;-71
2024/03/30 00:31:46;;;;;;;1.40;0.65;;;13.10;99.90;;;;;;2093053;28;20029;-71
2024/03/30 00:32:47;;;;;;;1.55;0.90;;;13.10;99.90;;;;;;2095990;28;20020;-71
2024/03/30 00:33:48;;;;;;;0.80;0.70;;;13.00;99.90;;;;;;2095606;28;20036;-71
2024/03/30 00:34:48;;;;;;;0.60;0.60;;;13.10;99.90;;;;;;2094241;28;20059;-71
2024/03/30 00:35:53;;;;;;;3.28;0.70;;;13.00;99.90;;;;;;2093669;28;20024;-72
2024/03/30 00:36:54;;;;;;;1.27;0.80;;;13.10;99.90;;;;;;2095865;28;20031;-71
2024/03/30 00:37:54;;;;;;;2.17;1.00;;;13.00;99.90;;;;;;2096154;28;20037;-71
2024/03/30 00:38:55;;;;;;;1.67;0.93;;;13.00;99.90;;;;;;2094942;28;20521;-71
2024/03/30 00:39:55;;;;;;;0.80;0.60;;;13.00;99.90;;;;;;2095048;28;20017;-71
2024/03/30 00:40:56;;;;;;;0.75;0.75;;;13.00;99.90;;;;;;2092950;28;20104;-71
2024/03/30 00:41:57;;;;;;;1.40;0.70;;;13.00;99.90;;;;;;2095413;28;20013;-71
2024/03/30 00:42:57;;;;;;;1.60;0.70;;;13.00;99.90;;;;;;2094720;28;20023;-71
2024/03/30 00:43:58;;;;;;;1.13;0.90;;;13.00;99.90;;;;;;2094601;28;20031;-71
2024/03/30 00:44:58;;;;;;;0.50;0.50;;;13.00;99.90;;;;;;2093563;28;20089;-71
2024/03/30 00:45:59;;;;;;;1.40;1.13;;;13.00;99.90;;;;;;2096261;28;20090;-71
2024/03/30 00:47:00;;;;;;;2.60;0.57;;;13.00;99.90;;;;;;2091111;28;20536;-71
2024/03/30 00:48:00;;;;;;;0.82;0.57;;;13.00;99.90;;;;;;2092815;28;20440;-71
2024/03/30 00:49:01;;;;;;;0.90;0.90;;;13.00;99.90;;;;;;2091999;28;20028;-71
2024/03/30 00:50:01;;;;;;;0.80;0.80;;;12.90;99.90;;;;;;2093950;28;20060;-71
2024/03/30 00:51:02;;;;;;;0.80;0.80;;;13.00;99.90;;;;;;2095070;28;20396;-71
2024/03/30 00:52:03;;;;;;;1.63;0.93;;;13.00;99.90;;;;;;2095150;28;20464;-71
2024/03/30 00:53:03;;;;;;;1.30;1.00;;;13.00;99.90;;;;;;2093734;28;20032;-71
2024/03/30 00:54:04;;;;;;;1.42;0.82;;;12.90;99.90;;;;;;2094905;28;20048;-71
2024/03/30 00:55:04;;;;;;;1.95;1.40;;;13.00;99.90;;;;;;2095013;28;20036;-71
2024/03/30 00:56:05;;;;;;;1.05;1.05;;;13.00;99.90;;;;;;2094454;28;20374;-71
2024/03/30 00:57:06;;;;;;;0.80;0.80;;;13.00;99.90;;;;;;2095410;28;20032;-71
2024/03/30 00:58:07;;;;;;;1.92;0.60;;;13.00;99.90;;;;;;2092741;28;20393;-71
2024/03/30 00:59:07;;;;;;;0.85;0.85;;;12.90;99.90;;;;;;2092735;28;20031;-71
2024/03/30 01:00:15;;;;;;;1.33;0.90;;;13.00;99.90;;;;;;2093669;28;20492;-71
2024/03/30 01:01:16;;;;;;;2.17;0.80;;;13.00;99.90;;;;;;2092580;28;20020;-71
2024/03/30 01:02:17;;;;;;;0.63;0.63;;;13.00;99.90;;;;;;2093948;28;20464;-72
2024/03/30 01:03:18;;;;;;;0.77;0.75;;;13.00;99.90;;;;;;2094676;28;20075;-71
2024/03/30 01:04:18;;;;;;;0.80;0.80;;;13.00;99.90;;;;;;2094238;28;20504;-71
2024/03/30 01:05:19;;;;;;;1.10;1.00;;;13.00;99.90;;;;;;2094333;28;20515;-71
2024/03/30 01:06:19;;;;;;;1.05;0.90;;;12.90;99.90;;;;;;2093403;28;20468;-71
2024/03/30 01:07:20;;;;;;;1.48;0.93;;;12.90;99.90;;;;;;2092550;28;20025;-72
2024/03/30 01:08:20;;;;;;;0.80;0.65;;;12.90;99.90;;;;;;2093266;28;20074;-71
2024/03/30 01:09:21;;;;;;;0.98;0.80;;;12.90;99.90;;;;;;2094176;28;20028;-71
2024/03/30 01:10:22;;;;;;;1.05;1.02;;;12.90;99.90;;;;;;2093293;28;20692;-71
2024/03/30 01:11:24;;;;;;;1.13;0.77;;;12.90;99.90;;;;;;2093476;28;20031;-71
2024/03/30 01:12:25;;;;;;;1.05;0.95;;;12.90;99.90;;;;;;2093749;28;20105;-71
2024/03/30 01:13:27;;;;;;;1.10;1.02;;;12.90;99.90;;;;;;2093783;28;20086;-71
2024/03/30 01:14:30;;;;;;;1.58;1.10;;;12.90;99.90;;;;;;2093729;28;20025;-68
2024/03/30 01:15:31;;;;;;;1.10;0.90;;;12.90;99.90;;;;;;2092305;28;20083;-67
2024/03/30 01:16:32;;;;;;;2.05;1.08;;;12.90;99.90;;;;;;2092712;28;20555;-67
2024/03/30 01:17:36;;;;;;;1.25;1.00;;;12.90;99.90;;;;;;2093976;28;20058;-68
2024/03/30 01:18:40;;;;;;;1.20;1.10;;;12.90;99.90;;;;;;2096425;28;20021;-68
2024/03/30 01:19:41;;;;;;;1.42;1.10;;;12.90;99.90;;;;;;2092242;28;20020;-67
2024/03/30 01:20:42;;;;;;;1.02;0.93;;;12.90;99.90;;;;;;2093460;28;20052;-67
2024/03/30 01:21:43;;;;;;;1.45;1.10;;;12.90;99.90;;;;;;2092153;28;20472;-68
2024/03/30 01:22:43;;;;;;;1.02;0.88;;;12.90;99.90;;;;;;2093137;28;21237;-67
2024/03/30 01:23:44;;;;;;;0.80;0.80;;;12.90;99.90;;;;;;2094722;28;20025;-67
2024/03/30 01:24:45;;;;;;;1.17;1.00;;;12.80;99.90;;;;;;2084854;28;20029;-67
2024/03/30 01:25:47;;;;;;;0.70;0.70;;;12.80;99.90;;;;;;2083734;28;20104;-69
2024/03/30 01:26:54;;;;;;;1.00;0.95;;;12.90;99.90;;;;;;2096490;28;20078;-68
2024/03/30 01:27:57;;;;;;;1.33;1.00;;;12.80;99.90;;;;;;2093589;28;20031;-68
2024/03/30 01:29:02;;;;;;;1.65;0.90;;;12.80;99.90;;;;;;2094540;28;20046;-68
2024/03/30 01:30:05;;;;;;;1.25;0.90;;;12.80;99.90;;;;;;2093576;28;20025;-69
2024/03/30 01:31:06;;;;;;;3.10;1.20;;;12.80;99.90;;;;;;2095404;28;20055;-66
2024/03/30 01:32:07;;;;;;;0.80;0.80;;;12.80;99.90;;;;;;2093751;28;20420;-70
2024/03/30 01:33:08;;;;;;;0.80;0.80;;;12.80;99.90;;;;;;2094105;28;20029;-68
2024/03/30 01:34:09;;;;;;;1.77;0.88;;;12.80;99.90;;;;;;2092387;28;20027;-72
2024/03/30 01:35:12;;;;;;;1.00;0.80;;;12.80;99.90;;;;;;2094893;28;20424;-71
2024/03/30 01:36:12;;;;;;;1.42;0.80;;;12.80;99.90;;;;;;2094955;28;20497;-71
2024/03/30 01:37:13;;;;;;;1.25;0.80;;;12.80;99.90;;;;;;2093569;28;20395;-71
2024/03/30 01:38:14;;;;;;;1.30;1.20;;;12.80;99.90;;;;;;2094161;28;20025;-70
2024/03/30 01:39:15;;;;;;;2.58;1.30;;;12.80;99.90;;;;;;2084169;28;20029;-71
2024/03/30 01:40:15;;;;;;;0.90;0.85;;;12.80;99.90;;;;;;2083631;28;20041;-70
2024/03/30 01:41:16;;;;;;;4.72;0.98;;;12.80;99.90;;;;;;2092213;28;20060;-71
2024/03/30 01:42:17;;;;;;;1.13;0.90;;;12.80;99.90;;;;;;2091345;28;20028;-72
2024/03/30 01:43:20;;;;;;;1.40;1.10;;;12.70;99.90;;;;;;2094600;28;20024;-71
2024/03/30 01:44:20;;;;;;;1.10;1.00;;;12.70;99.90;;;;;;2093369;28;20024;-70
2024/03/30 01:45:21;;;;;;;1.95;1.05;;;12.70;99.90;;;;;;2094778;28;20048;-71
2024/03/30 01:46:26;;;;;;;1.10;1.10;;;12.70;99.90;;;;;;2092519;28;20131;-71
2024/03/30 01:47:29;;;;;;;1.17;0.90;;;12.70;99.90;;;;;;2093760;28;20020;-71
2024/03/30 01:48:30;;;;;;;1.30;1.20;;;12.70;99.90;;;;;;2092364;28;20021;-70
2024/03/30 01:49:31;;;;;;;1.35;0.80;;;12.70;99.90;;;;;;2092780;28;20071;-71
2024/03/30 01:50:33;;;;;;;1.85;1.10;;;12.70;99.90;;;;;;2092977;28;20450;-71
2024/03/30 01:51:34;;;;;;;0.75;0.75;;;12.60;99.90;;;;;;2093002;28;20032;-72
2024/03/30 01:52:37;;;;;;;1.88;1.15;;;12.60;99.90;;;;;;2095718;28;20081;-70
2024/03/30 01:53:39;;;;;;;1.05;1.00;;;12.60;99.90;;;;;;2093720;28;20024;-72
2024/03/30 01:54:43;;;;;;;1.27;1.08;;;12.60;99.90;;;;;;2095097;28;20574;-70
2024/03/30 01:55:46;;;;;;;1.50;1.13;;;12.60;99.90;;;;;;2092635;28;20025;-70
2024/03/30 01:56:50;;;;;;;1.08;1.08;;;12.60;99.90;;;;;;2094603;28;20032;-69
2024/03/30 01:57:52;;;;;;;1.33;1.23;;;12.60;99.90;;;;;;2095583;28;20020;-72
2024/03/30 01:58:56;;;;;;;1.58;1.08;;;12.50;99.90;;;;;;2094547;28;20048;-71
2024/03/30 01:59:57;;;;;;;1.85;1.08;;;12.50;99.90;;;;;;2094928;28;20781;-70
2024/03/30 02:00:58;;;;;;;1.73;1.05;;;12.50;99.90;;;;;;2095532;28;20081;-70
2024/03/30 02:02:00;;;;;;;1.55;1.20;;;12.50;99.90;;;;;;2093455;28;20071;-70
2024/03/30 02:03:03;;;;;;;1.33;1.23;;;12.50;99.90;;;;;;2091700;28;20013;-70
2024/03/30 02:04:04;;;;;;;2.28;1.20;;;12.50;99.90;;;;;;2093087;28;20028;-70
2024/03/30 02:05:05;;;;;;;1.33;1.08;;;12.40;99.90;;;;;;2092956;28;20067;-70
2024/03/30 02:06:07;;;;;;;1.33;1.08;;;12.40;99.90;;;;;;2092981;28;20017;-70
2024/03/30 02:07:11;;;;;;;1.52;0.93;;;12.40;99.90;;;;;;2094062;28;20031;-71
2024/03/30 02:08:15;;;;;;;0.80;0.80;;;12.40;99.90;;;;;;2092071;28;20543;-70
2024/03/30 02:09:17;;;;;;;1.80;1.10;;;12.40;99.90;;;;;;2091737;28;20025;-71
2024/03/30 02:10:18;;;;;;;0.90;0.90;;;12.40;99.90;;;;;;2093551;28;20047;-70
2024/03/30 02:11:19;;;;;;;1.08;0.88;;;12.40;99.90;;;;;;2093470;28;20012;-70
2024/03/30 02:12:21;;;;;;;1.27;0.90;;;12.40;99.90;;;;;;2092764;28;20351;-70
2024/03/30 02:13:24;;;;;;;1.23;0.95;;;12.40;99.90;;;;;;2093836;28;20106;-70
2024/03/30 02:14:24;;;;;;;2.28;0.90;;;12.30;99.90;;;;;;2092934;28;20031;-70
2024/03/30 02:15:25;;;;;;;1.30;0.90;;;12.30;99.90;;;;;;2094182;28;20060;-70
2024/03/30 02:16:28;;;;;;;1.30;1.02;;;12.30;99.90;;;;;;2083888;28;20029;-69
2024/03/30 02:17:29;;;;;;;1.45;0.85;;;12.30;99.90;;;;;;2083623;28;20048;-70
2024/03/30 02:18:30;;;;;;;1.15;0.98;;;12.30;99.90;;;;;;2093680;28;20028;-71
2024/03/30 02:19:42;;;;;;;1.38;0.93;;;12.30;99.90;;;;;;2094602;28;20111;-70
2024/03/30 02:20:42;;;;;;;4.63;1.20;;;12.30;99.90;;;;;;2093388;28;20133;-70
2024/03/30 02:21:43;;;;;;;1.27;1.17;;;12.20;99.90;;;;;;2094384;28;20033;-70
2024/03/30 02:22:51;;;;;;;1.13;1.05;;;12.20;99.90;;;;;;2091772;28;20067;-70
2024/03/30 02:23:51;;;;;;;1.23;0.95;;;12.20;99.90;;;;;;2091848;28;20017;-71
2024/03/30 02:24:52;;;;;;;0.98;0.95;;;12.20;99.90;;;;;;2087556;28;20115;-70
2024/03/30 02:25:59;;;;;;;1.45;0.90;;;12.20;99.90;;;;;;2088188;28;20029;-70
2024/03/30 02:27:00;;;;;;;1.00;1.00;;;12.20;99.90;;;;;;2091059;28;20037;-70
2024/03/30 02:28:03;;;;;;;1.40;1.10;;;12.20;99.90;;;;;;2092962;28;20021;-70
2024/03/30 02:29:10;;;;;;;1.35;1.25;;;12.20;99.90;;;;;;2092179;28;20028;-70
2024/03/30 02:30:21;;;;;;;1.23;1.13;;;12.20;99.90;;;;;;2092810;28;20016;-71
2024/03/30 02:31:24;;;;;;;2.17;1.20;;;12.20;99.90;;;;;;2092498;28;20025;-70
2024/03/30 02:32:26;;;;;;;1.10;1.10;;;12.20;99.90;;;;;;2093882;28;20047;-69
2024/03/30 02:33:26;;;;;;;1.48;1.38;;;12.20;99.90;;;;;;2093400;28;20027;-70
2024/03/30 02:34:27;;;;;;;1.65;1.15;;;12.20;99.90;;;;;;2094489;28;20100;-70
2024/03/30 02:35:28;;;;;;;1.70;1.30;;;12.20;99.90;;;;;;2092440;28;20040;-70
2024/03/30 02:36:30;;;;;;;1.45;1.30;;;12.20;99.90;;;;;;2094354;28;20427;-70
2024/03/30 02:37:31;;;;;;;1.75;1.45;;;12.20;99.90;;;;;;2095223;28;20028;-69
2024/03/30 02:38:34;;;;;;;2.05;1.95;;;12.10;99.90;;;;;;2093749;28;20023;-70
2024/03/30 02:39:35;;;;;;;2.53;1.60;;;12.10;99.90;;;;;;2092278;28;20104;-69
2024/03/30 02:40:37;;;;;;;3.05;1.30;;;12.10;99.90;;;;;;2094757;28;20075;-71
2024/03/30 02:41:37;;;;;;;2.00;1.60;;;12.10;99.90;;;;;;2094825;28;20385;-71
2024/03/30 02:42:38;;;;;;;1.45;1.35;;;12.10;99.90;;;;;;2093844;28;20028;-70
2024/03/30 02:43:41;;;;;;;1.63;1.52;;;12.10;99.90;;;;;;2094326;28;20040;-71
2024/03/30 02:44:41;;;;;;;3.45;1.73;;;12.10;99.90;;;;;;2094370;28;20017;-71
2024/03/30 02:45:42;;;;;;;1.67;1.58;;;12.10;99.90;;;;;;2093626;28;20021;-71
2024/03/30 02:46:43;;;;;;;2.47;1.33;;;12.10;99.90;;;;;;2093436;28;20755;-71
2024/03/30 02:47:44;;;;;;;1.92;1.67;;;12.10;99.90;;;;;;2092375;28;20059;-71
2024/03/30 02:48:45;;;;;;;1.77;1.67;;;12.10;99.90;;;;;;2093958;28;20017;-71
2024/03/30 02:49:48;;;;;;;1.80;1.65;;;12.10;99.90;;;;;;2093780;28;20021;-71
2024/03/30 02:50:49;;;;;;;1.80;1.70;;;12.10;99.90;;;;;;2093490;28;20542;-71
2024/03/30 02:51:50;;;;;;;1.50;1.40;;;12.10;99.90;;;;;;2093659;28;20604;-71
2024/03/30 02:52:50;;;;;;;2.55;1.73;;;12.10;99.90;;;;;;2093295;28;20056;-71
2024/03/30 02:53:51;;;;;;;2.20;1.80;;;12.10;99.90;;;;;;2092791;28;20107;-71
2024/03/30 02:54:51;;;;;;;2.75;1.98;;;12.10;99.90;;;;;;2092958;28;20082;-71
2024/03/30 02:55:52;;;;;;;1.83;1.70;;;12.10;99.90;;;;;;2092833;28;20029;-71
2024/03/30 02:56:53;;;;;;;2.25;2.05;;;12.10;99.90;;;;;;2093539;28;20029;-71
2024/03/30 02:57:56;;;;;;;2.15;1.85;;;12.10;99.90;;;;;;2093285;28;20021;-71
2024/03/30 02:58:56;;;;;;;4.47;2.05;;;12.10;99.90;;;;;;2093612;28;20052;-71
2024/03/30 02:59:57;;;;;;;2.50;2.30;;;12.10;99.90;;;;;;2092708;28;20056;-71
2024/03/30 03:00:58;;;;;;;2.85;2.13;;;12.00;99.90;;;;;;2092977;28;20036;-71
2024/03/30 03:01:59;;;;;;;2.30;2.10;;;12.10;99.90;;;;;;2093901;28;20040;-71
2024/03/30 03:03:00;;;;;;;2.30;2.08;;;12.10;99.90;;;;;;2086634;28;20056;-71
2024/03/30 03:04:00;;;;;;;2.28;2.05;;;12.10;99.90;;;;;;2087596;28;20083;-71
2024/03/30 03:05:01;;;;;;;2.58;2.10;;;12.00;99.90;;;;;;2094530;28;20025;-71
2024/03/30 03:06:02;;;;;;;2.20;2.00;;;12.10;99.90;;;;;;2094970;28;20028;-71
2024/03/30 03:07:06;;;;;;;2.88;2.17;;;12.10;99.90;;;;;;2093954;28;20067;-71
2024/03/30 03:08:06;;;;;;;2.50;2.08;;;12.10;99.90;;;;;;2092734;28;20181;-70
2024/03/30 03:09:07;;;;;;;3.53;1.98;;;12.00;99.90;;;;;;2094719;28;20024;-70
2024/03/30 03:10:08;;;;;;;2.40;2.20;;;12.00;99.90;;;;;;2092498;28;20048;-71
2024/03/30 03:11:09;;;;;;;2.70;1.98;;;12.00;99.90;;;;;;2092392;28;20021;-71
2024/03/30 03:12:09;;;;;;;2.03;1.92;;;12.00;99.90;;;;;;2094566;28;20035;-71
2024/03/30 03:13:10;;;;;;;2.22;2.13;;;12.00;99.90;;;;;;2092355;28;20477;-71
2024/03/30 03:14:13;;;;;;;2.08;1.98;;;12.00;99.90;;;;;;2093489;28;20090;-71
2024/03/30 03:15:13;;;;;;;2.30;2.10;;;12.00;99.90;;;;;;2095543;28;20047;-71
2024/03/30 03:16:14;;;;;;;2.83;2.33;;;12.00;99.90;;;;;;2093514;28;20511;-71
2024/03/30 03:17:15;;;;;;;2.00;1.90;;;12.00;99.90;;;;;;2093949;28;20495;-71
2024/03/30 03:18:15;;;;;;;3.08;2.28;;;12.00;99.90;;;;;;2093895;28;20650;-71
2024/03/30 03:19:16;;;;;;;2.13;1.92;;;12.00;99.90;;;;;;2094816;28;20024;-71
2024/03/30 03:20:17;;;;;;;2.30;1.98;;;12.00;99.90;;;;;;2093969;28;20685;-71
2024/03/30 03:21:17;;;;;;;2.40;2.10;;;12.00;99.90;;;;;;2091552;28;20045;-71
2024/03/30 03:22:18;;;;;;;2.33;2.13;;;12.00;99.90;;;;;;2093758;28;20650;-71
2024/03/30 03:23:18;;;;;;;2.15;1.95;;;12.00;99.90;;;;;;2083380;28;20018;-71
2024/03/30 03:24:19;;;;;;;2.03;1.92;;;12.00;99.90;;;;;;2084683;28;20052;-71
2024/03/30 03:25:19;;;;;;;2.85;2.00;;;12.00;99.90;;;;;;2094664;28;20537;-71
2024/03/30 03:26:20;;;;;;;2.72;2.30;;;12.00;99.90;;;;;;2092860;28;20036;-71
2024/03/30 03:27:20;;;;;;;2.10;2.00;;;12.00;99.90;;;;;;2093098;28;20369;-71
2024/03/30 03:28:21;;;;;;;2.42;2.22;;;12.00;99.90;;;;;;2094654;28;20040;-71
2024/03/30 03:29:22;;;;;;;2.63;2.42;;;12.00;99.90;;;;;;2093026;28;20393;-71
2024/03/30 03:30:22;;;;;;;2.60;2.30;;;12.00;99.90;;;;;;2093264;28;20052;-71
2024/03/30 03:31:23;;;;;;;3.25;2.00;;;11.90;99.90;;;;;;2092750;28;20029;-71
2024/03/30 03:32:23;;;;;;;3.67;2.22;;;12.00;99.90;;;;;;2092538;28;20103;-70
2024/03/30 03:33:24;;;;;;;2.53;1.90;;;12.00;99.90;;;;;;2087662;28;20507;-71
2024/03/30 03:34:24;;;;;;;2.47;2.03;;;12.00;99.90;;;;;;2087877;28;20029;-70
2024/03/30 03:35:25;;;;;;;2.13;1.92;;;11.90;99.90;;;;;;2093282;28;20028;-71
2024/03/30 03:36:25;;;;;;;1.88;1.77;;;11.90;99.90;;;;;;2092286;28;20033;-71
2024/03/30 03:37:26;;;;;;;2.78;2.53;;;12.00;99.90;;;;;;2092269;28;20472;-71
2024/03/30 03:38:26;;;;;;;2.30;2.10;;;11.90;99.90;;;;;;2095480;28;20016;-71
2024/03/30 03:39:27;;;;;;;3.85;2.10;;;11.90;99.90;;;;;;2094077;28;20082;-71
2024/03/30 03:40:27;;;;;;;2.53;2.10;;;11.90;99.90;;;;;;2095421;28;20031;-70
2024/03/30 03:41:28;;;;;;;2.10;1.90;;;12.00;99.90;;;;;;2094086;28;20044;-70
2024/03/30 03:42:29;;;;;;;2.40;2.20;;;11.90;99.90;;;;;;2092235;28;20640;-71
2024/03/30 03:43:29;;;;;;;2.83;2.00;;;12.00;99.90;;;;;;2094009;28;20567;-71
2024/03/30 03:44:30;;;;;;;2.88;2.00;;;12.00;99.90;;;;;;2094917;28;20139;-71
2024/03/30 03:45:30;;;;;;;2.78;2.45;;;11.90;99.90;;;;;;2094897;28;20500;-71
2024/03/30 03:46:31;;;;;;;4.10;2.60;;;12.00;99.90;;;;;;2093933;28;20013;-71
2024/03/30 03:47:32;;;;;;;2.42;2.22;;;12.00;99.90;;;;;;2096041;28;20056;-71
2024/03/30 03:48:33;;;;;;;2.60;2.40;;;12.00;99.90;;;;;;2093370;28;20027;-71
2024/03/30 03:49:34;;;;;;;2.42;2.22;;;12.00;99.90;;;;;;2095566;28;20036;-71
2024/03/30 03:50:34;;;;;;;1.83;1.73;;;12.00;99.90;;;;;;2095741;28;20060;-71
2024/03/30 03:51:35;;;;;;;2.33;2.08;;;12.00;99.90;;;;;;2093636;28;20697;-71
2024/03/30 03:52:35;;;;;;;2.00;1.90;;;12.00;99.90;;;;;;2093730;28;20050;-71
2024/03/30 03:53:36;;;;;;;2.38;2.17;;;11.90;99.90;;;;;;2095940;28;20037;-71
2024/03/30 03:54:37;;;;;;;2.50;2.30;;;11.90;99.90;;;;;;2088611;28;20025;-71
2024/03/30 03:55:37;;;;;;;3.08;2.28;;;11.90;99.90;;;;;;2088258;28;20032;-71
2024/03/30 03:56:37;;;;;;;2.17;2.00;;;12.00;99.90;;;;;;2095249;28;20020;-71
2024/03/30 03:57:38;;;;;;;2.95;2.13;;;11.90;99.90;;;;;;2094660;28;20032;-71
2024/03/30 03:58:38;;;;;;;2.15;1.95;;;11.90;99.90;;;;;;2095900;28;20103;-71
2024/03/30 03:59:39;;;;;;;2.88;2.33;;;11.90;99.90;;;;;;2093945;28;20021;-71
2024/03/30 04:00:40;;;;;;;2.53;2.25;;;11.90;99.90;;;;;;2094261;28;20111;-71
2024/03/30 04:01:40;;;;;;;3.47;2.28;;;11.90;99.90;;;;;;2094183;28;20481;-71
2024/03/30 04:02:41;;;;;;;2.20;2.00;;;11.90;99.90;;;;;;2094686;28;20017;-71
2024/03/30 04:03:42;;;;;;;2.50;2.30;;;12.00;99.90;;;;;;2095340;28;20355;-71
2024/03/30 04:04:43;;;;;;;2.47;2.28;;;12.00;99.90;;;;;;2093665;28;20017;-71
2024/03/30 04:05:43;;;;;;;1.98;1.88;;;12.00;99.90;;;;;;2094458;28;20032;-71
2024/03/30 04:06:44;;;;;;;2.35;2.15;;;11.90;99.90;;;;;;2093680;28;20444;-71
2024/03/30 04:07:44;;;;;;;2.33;2.17;;;11.90;99.90;;;;;;2095008;28;20351;-70
2024/03/30 04:08:48;;;;;;;2.97;2.30;;;12.00;99.90;;;;;;2093308;28;20027;-70
2024/03/30 04:09:51;;;;;;;2.50;2.25;;;11.90;99.90;;;;;;2095158;28;20063;-71
2024/03/30 04:11:00;;;;;;;3.13;2.17;;;12.00;99.90;;;;;;2092789;28;20028;-71
2024/03/30 04:12:01;;;;;;;2.70;2.47;;;12.00;99.90;;;;;;2094343;28;20032;-71
2024/03/30 04:13:01;;;;;;;2.55;2.25;;;11.90;99.90;;;;;;2093172;28;20120;-71
2024/03/30 04:14:02;;;;;;;1.80;1.70;;;11.90;99.90;;;;;;2093796;28;20450;-71
2024/03/30 04:15:02;;;;;;;1.85;1.75;;;11.90;99.90;;;;;;2092823;28;20033;-71
2024/03/30 04:16:06;;;;;;;2.15;2.05;;;11.90;99.90;;;;;;2094491;28;20036;-71
2024/03/30 04:17:07;;;;;;;1.98;1.88;;;11.90;99.90;;;;;;2094585;28;20028;-71
2024/03/30 04:18:07;;;;;;;2.05;1.85;;;11.90;99.90;;;;;;2093742;28;20021;-71
2024/03/30 04:19:08;;;;;;;2.10;2.00;;;11.90;99.90;;;;;;2092715;28;20140;-70
2024/03/30 04:20:09;;;;;;;2.22;2.08;;;11.90;99.90;;;;;;2094323;28;20542;-71
2024/03/30 04:21:09;;;;;;;2.15;2.00;;;11.90;99.90;;;;;;2094000;28;20044;-71
2024/03/30 04:22:10;;;;;;;2.33;2.13;;;11.80;99.90;;;;;;2094820;28;20064;-71
2024/03/30 04:23:10;;;;;;;1.88;1.77;;;11.80;99.90;;;;;;2094486;28;20600;-70
2024/03/30 04:24:14;;;;;;;1.90;1.80;;;11.90;99.90;;;;;;2095685;28;20024;-71
2024/03/30 04:25:14;;;;;;;1.83;1.73;;;11.90;99.90;;;;;;2092988;28;20039;-71
2024/03/30 04:26:18;;;;;;;2.42;2.22;;;11.90;99.90;;;;;;2094232;28;20029;-71
2024/03/30 04:27:18;;;;;;;2.97;2.10;;;11.80;99.90;;;;;;2095320;28;20017;-71
2024/03/30 04:28:19;;;;;;;3.83;2.70;;;11.80;99.90;;;;;;2094702;28;20026;-71
2024/03/30 04:29:19;;;;;;;2.33;2.13;;;11.80;99.90;;;;;;2087758;28;20016;-71
2024/03/30 04:30:20;;;;;;;2.13;2.03;;;11.80;99.90;;;;;;2088751;28;20060;-71
2024/03/30 04:31:20;;;;;;;2.17;1.95;;;11.80;99.90;;;;;;2094729;28;20078;-71
2024/03/30 04:32:21;;;;;;;2.60;2.40;;;11.80;99.90;;;;;;2092949;28;20026;-71
2024/03/30 04:33:22;;;;;;;2.20;2.00;;;11.80;99.90;;;;;;2094507;28;20020;-71
2024/03/30 04:34:22;;;;;;;2.05;1.95;;;11.80;99.90;;;;;;2092249;28;20048;-71
2024/03/30 04:35:23;;;;;;;3.17;2.97;;;11.80;99.90;;;;;;2092791;28;20933;-71
2024/03/30 04:36:23;;;;;;;2.42;1.95;;;11.70;99.90;;;;;;2095229;28;20059;-71
2024/03/30 04:37:24;;;;;;;2.17;2.00;;;11.80;99.90;;;;;;2094276;28;20428;-71
2024/03/30 04:38:25;;;;;;;2.28;2.08;;;11.70;99.90;;;;;;2087906;28;20075;-71
2024/03/30 04:39:26;;;;;;;2.70;2.50;;;11.80;99.90;;;;;;2086918;28;20025;-71
2024/03/30 04:40:27;;;;;;;2.70;2.38;;;11.70;99.90;;;;;;2094644;28;20441;-71
2024/03/30 04:41:28;;;;;;;2.90;2.70;;;11.70;99.90;;;;;;2094914;28;20020;-70
2024/03/30 04:42:29;;;;;;;2.60;2.40;;;11.70;99.90;;;;;;2093568;28;20087;-70
2024/03/30 04:43:31;;;;;;;3.63;2.65;;;11.70;99.90;;;;;;2092733;28;20017;-71
2024/03/30 04:44:32;;;;;;;2.35;2.22;;;11.70;99.90;;;;;;2094387;28;20651;-70
2024/03/30 04:45:32;;;;;;;2.50;2.40;;;11.70;99.90;;;;;;2093428;28;20389;-71
2024/03/30 04:46:33;;;;;;;2.90;2.33;;;11.70;99.90;;;;;;2094417;28;20128;-71
2024/03/30 04:47:33;;;;;;;2.45;1.90;;;11.70;99.90;;;;;;2093992;28;20024;-71
2024/03/30 04:48:34;;;;;;;3.72;1.90;;;11.60;99.90;;;;;;2092362;28;20968;-71
2024/03/30 04:49:34;;;;;;;2.97;2.17;;;11.60;99.90;;;;;;2092923;28;20118;-70
2024/03/30 04:50:35;;;;;;;2.45;2.20;;;11.60;99.90;;;;;;2095215;28;20054;-71
2024/03/30 04:51:36;;;;;;;3.03;2.33;;;11.60;99.90;;;;;;2094898;28;20086;-71
2024/03/30 04:52:36;;;;;;;2.85;2.53;;;11.60;99.90;;;;;;2091130;28;20025;-71
2024/03/30 04:53:37;;;;;;;3.65;2.53;;;11.60;99.90;;;;;;2093646;28;20025;-71
2024/03/30 04:54:37;;;;;;;3.05;2.75;;;11.60;99.90;;;;;;2094634;28;20021;-71
2024/03/30 04:55:38;;;;;;;2.38;2.17;;;11.60;99.90;;;;;;2093919;28;20025;-71
2024/03/30 04:56:39;;;;;;;3.22;2.08;;;11.60;99.90;;;;;;2083362;28;20079;-71
2024/03/30 04:57:39;;;;;;;4.43;2.20;;;11.60;99.90;;;;;;2087041;28;20848;-70
2024/03/30 04:58:40;;;;;;;3.50;2.63;;;11.60;99.90;;;;;;2096831;28;20107;-71
2024/03/30 04:59:40;;;;;;;2.33;2.15;;;11.60;99.90;;;;;;2093415;28;20021;-71
2024/03/30 05:00:41;;;;;;;4.22;2.67;;;11.50;99.90;;;;;;2093330;28;20013;-71
2024/03/30 05:01:41;;;;;;;4.05;2.60;;;11.50;99.90;;;;;;2095034;28;20104;-71
2024/03/30 05:02:42;;;;;;;3.03;2.80;;;11.50;99.90;;;;;;2094796;28;20024;-71
2024/03/30 05:03:42;;;;;;;2.60;2.40;;;11.50;99.90;;;;;;2093407;28;20603;-70
2024/03/30 05:04:43;;;;;;;3.22;2.25;;;11.50;99.90;;;;;;2095493;28;20048;-71
2024/03/30 05:05:45;;;;;;;2.10;1.80;;;11.50;99.90;;;;;;2093921;28;20029;-70
2024/03/30 05:06:45;;;;;;;2.70;2.50;;;11.50;99.90;;;;;;2093816;28;20108;-70
2024/03/30 05:07:46;;;;;;;2.83;2.53;;;11.50;99.90;;;;;;2094128;28;20029;-71
2024/03/30 05:08:46;;;;;;;2.28;2.08;;;11.50;99.90;;;;;;2094011;28;20104;-70
2024/03/30 05:09:47;;;;;;;3.05;2.80;;;11.50;99.90;;;;;;2092654;28;20029;-70
2024/03/30 05:10:47;;;;;;;2.33;2.13;;;11.50;99.90;;;;;;2093308;28;20024;-70
2024/03/30 05:11:48;;;;;;;2.75;2.20;;;11.50;99.90;;;;;;2092297;28;20477;-70
2024/03/30 05:12:48;;;;;;;2.50;2.30;;;11.50;99.90;;;;;;2091741;28;20039;-70
2024/03/30 05:13:50;;;;;;;2.47;2.25;;;11.40;99.90;;;;;;2092707;28;20023;-70
2024/03/30 05:14:50;;;;;;;3.20;2.33;;;11.40;99.90;;;;;;2095699;28;20074;-72
2024/03/30 05:15:51;;;;;;;3.55;2.55;;;11.40;99.90;;;;;;2089932;28;20032;-70
2024/03/30 05:16:51;;;;;;;2.85;2.55;;;11.40;99.90;;;;;;2094002;28;20570;-70
2024/03/30 05:17:52;;;;;;;2.58;2.38;;;11.40;99.90;;;;;;2092463;28;20047;-70
2024/03/30 05:18:52;;;;;;;2.80;2.10;;;11.40;99.90;;;;;;2092161;28;20079;-70